sensor_id;sensor_type;location;lat;lon;timestamp;temperature;humidity
50606;DHT22;36557;53.572;10.170;2023-02-26T18:08:51;1.20;99.90
50606;DHT22;36557;53.572;10.170;2023-02-26T18:11:18;1.10;99.90
50606;DHT22;36557;53.572;10.170;2023-02-26T18:13:46;1.10;99.90
50606;DHT22;36557;53.572;10.170;2023-02-26T18:16:16;1.10;99.90
50606;DHT22;36557;53.572;10.170;2023-02-26T18:18:43;1.10;99.90
50606;DHT22;36557;53.572;10.170;2023-02-26T18:21:08;1.10;99.90
50606;DHT22;36557;53.572;10.170;2023-02-26T18:23:34;1.10;99.90
50606;DHT22;36557;53.572;10.170;2023-02-26T18:26:00;1.10;99.90
50606;DHT22;36557;53.572;10.170;2023-02-26T18:28:27;1.00;99.90
50606;DHT22;36557;53.572;10.170;2023-02-26T18:30:55;1.00;99.90
50606;DHT22;36557;53.572;10.170;2023-02-26T18:33:22;0.90;99.90
50606;DHT22;36557;53.572;10.170;2023-02-26T18:35:50;0.80;99.90
50606;DHT22;36557;53.572;10.170;2023-02-26T18:38:21;0.80;99.90
50606;DHT22;36557;53.572;10.170;2023-02-26T18:40:48;0.80;99.90
50606;DHT22;36557;53.572;10.170;2023-02-26T18:43:13;0.80;99.90
50606;DHT22;36557;53.572;10.170;2023-02-26T18:45:41;0.80;99.90
50606;DHT22;36557;53.572;10.170;2023-02-26T18:48:07;0.80;99.90
50606;DHT22;36557;53.572;10.170;2023-02-26T18:50:34;0.70;99.90
50606;DHT22;36557;53.572;10.170;2023-02-26T18:53:00;0.70;99.90
50606;DHT22;36557;53.572;10.170;2023-02-26T18:55:26;0.60;99.90
50606;DHT22;36557;53.572;10.170;2023-02-26T18:57:51;0.50;99.90
50606;DHT22;36557;53.572;10.170;2023-02-26T19:00:17;0.50;99.90
50606;DHT22;36557;53.572;10.170;2023-02-26T19:02:44;0.50;99.90
50606;DHT22;36557;53.572;10.170;2023-02-26T19:05:11;0.40;99.90
50606;DHT22;36557;53.572;10.170;2023-02-26T19:07:38;0.20;99.90
50606;DHT22;36557;53.572;10.170;2023-02-26T19:10:05;0.20;99.90
50606;DHT22;36557;53.572;10.170;2023-02-26T19:12:33;0.20;99.90
50606;DHT22;36557;53.572;10.170;2023-02-26T19:14:59;0.10;99.90
50606;DHT22;36557;53.572;10.170;2023-02-26T19:17:26;0.10;99.90
50606;DHT22;36557;53.572;10.170;2023-02-26T19:19:52;0.10;99.90
50606;DHT22;36557;53.572;10.170;2023-02-26T19:22:17;0.00;99.90
50606;DHT22;36557;53.572;10.170;2023-02-26T19:24:43;0.00;99.90
50606;DHT22;36557;53.572;10.170;2023-02-26T19:27:10;0.00;99.90
50606;DHT22;36557;53.572;10.170;2023-02-26T19:29:37;-0.10;99.90
50606;DHT22;36557;53.572;10.170;2023-02-26T19:32:04;-0.10;99.90
50606;DHT22;36557;53.572;10.170;2023-02-26T19:34:30;-0.20;99.90
50606;DHT22;36557;53.572;10.170;2023-02-26T19:36:56;-0.20;99.90
50606;DHT22;36557;53.572;10.170;2023-02-26T19:39:22;-0.30;99.90
50606;DHT22;36557;53.572;10.170;2023-02-26T19:41:49;-0.40;99.90
50606;DHT22;36557;53.572;10.170;2023-02-26T19:44:17;-0.40;99.90
50606;DHT22;36557;53.572;10.170;2023-02-26T19:46:44;-0.40;99.90
50606;DHT22;36557;53.572;10.170;2023-02-26T19:49:10;-0.50;99.90
50606;DHT22;36557;53.572;10.170;2023-02-26T19:51:36;-0.40;99.90
50606;DHT22;36557;53.572;10.170;2023-02-26T19:54:02;-0.40;99.90
50606;DHT22;36557;53.572;10.170;2023-02-26T19:56:28;-0.50;99.90
50606;DHT22;36557;53.572;10.170;2023-02-26T19:58:54;-0.50;99.90
50606;DHT22;36557;53.572;10.170;2023-02-26T20:01:20;-0.60;99.90
50606;DHT22;36557;53.572;10.170;2023-02-26T20:03:45;-0.60;99.90
50606;DHT22;36557;53.572;10.170;2023-02-26T20:06:11;-0.60;99.90
50606;DHT22;36557;53.572;10.170;2023-02-26T20:08:37;-0.60;99.90
50606;DHT22;36557;53.572;10.170;2023-02-26T20:11:04;-0.70;99.90
50606;DHT22;36557;53.572;10.170;2023-02-26T20:13:30;-0.80;99.90
50606;DHT22;36557;53.572;10.170;2023-02-26T20:16:03;-0.80;99.90
50606;DHT22;36557;53.572;10.170;2023-02-26T20:18:31;-0.80;99.90
50606;DHT22;36557;53.572;10.170;2023-02-26T20:20:58;-0.80;99.90
50606;DHT22;36557;53.572;10.170;2023-02-26T20:23:24;-0.90;99.90
50606;DHT22;36557;53.572;10.170;2023-02-26T20:25:53;-0.90;99.90
50606;DHT22;36557;53.572;10.170;2023-02-26T20:28:19;-1.00;99.90
50606;DHT22;36557;53.572;10.170;2023-02-26T20:30:45;-1.00;99.90
50606;DHT22;36557;53.572;10.170;2023-02-26T20:33:12;-1.00;99.90
50606;DHT22;36557;53.572;10.170;2023-02-26T20:35:39;-1.10;99.90
50606;DHT22;36557;53.572;10.170;2023-02-26T20:38:05;-1.10;99.90
50606;DHT22;36557;53.572;10.170;2023-02-26T20:40:31;-1.10;99.90
50606;DHT22;36557;53.572;10.170;2023-02-26T20:42:57;-1.10;99.90
50606;DHT22;36557;53.572;10.170;2023-02-26T20:45:23;-1.10;99.90
50606;DHT22;36557;53.572;10.170;2023-02-26T20:47:48;-1.20;99.90
50606;DHT22;36557;53.572;10.170;2023-02-26T20:50:14;-1.20;99.90
50606;DHT22;36557;53.572;10.170;2023-02-26T20:52:40;-1.20;99.90
50606;DHT22;36557;53.572;10.170;2023-02-26T20:55:06;-1.30;99.90
50606;DHT22;36557;53.572;10.170;2023-02-26T20:57:32;-1.30;99.90
50606;DHT22;36557;53.572;10.170;2023-02-26T20:59:59;-1.30;99.90
50606;DHT22;36557;53.572;10.170;2023-02-26T21:02:31;-1.40;99.90
50606;DHT22;36557;53.572;10.170;2023-02-26T21:04:57;-1.40;99.90
50606;DHT22;36557;53.572;10.170;2023-02-26T21:07:23;-1.40;99.90
50606;DHT22;36557;53.572;10.170;2023-02-26T21:09:49;-1.40;99.90
50606;DHT22;36557;53.572;10.170;2023-02-26T21:12:17;-1.50;99.90
50606;DHT22;36557;53.572;10.170;2023-02-26T21:14:43;-1.50;99.90
50606;DHT22;36557;53.572;10.170;2023-02-26T21:17:09;-1.50;99.90
50606;DHT22;36557;53.572;10.170;2023-02-26T21:19:35;-1.60;99.90
50606;DHT22;36557;53.572;10.170;2023-02-26T21:22:01;-1.60;99.90
50606;DHT22;36557;53.572;10.170;2023-02-26T21:24:27;-1.60;99.90
50606;DHT22;36557;53.572;10.170;2023-02-26T21:26:53;-1.60;99.90
50606;DHT22;36557;53.572;10.170;2023-02-26T21:29:19;-1.60;99.90
50606;DHT22;36557;53.572;10.170;2023-02-26T21:31:45;-1.60;99.90
50606;DHT22;36557;53.572;10.170;2023-02-26T21:34:11;-1.70;99.90
50606;DHT22;36557;53.572;10.170;2023-02-26T21:36:36;-1.60;99.90
50606;DHT22;36557;53.572;10.170;2023-02-26T21:39:02;-1.70;99.90
50606;DHT22;36557;53.572;10.170;2023-02-26T21:41:28;-1.60;99.90
50606;DHT22;36557;53.572;10.170;2023-02-26T21:43:54;-1.60;99.90
50606;DHT22;36557;53.572;10.170;2023-02-26T21:46:20;-1.60;99.90
50606;DHT22;36557;53.572;10.170;2023-02-26T21:48:47;-1.50;99.90
50606;DHT22;36557;53.572;10.170;2023-02-26T21:51:14;-1.50;99.90
50606;DHT22;36557;53.572;10.170;2023-02-26T21:53:40;-1.50;99.90
50606;DHT22;36557;53.572;10.170;2023-02-26T21:56:06;-1.30;99.90
50606;DHT22;36557;53.572;10.170;2023-02-26T21:58:32;-1.30;99.90
50606;DHT22;36557;53.572;10.170;2023-02-26T22:00:58;-1.40;99.90
50606;DHT22;36557;53.572;10.170;2023-02-26T22:03:24;-1.50;99.90
50606;DHT22;36557;53.572;10.170;2023-02-26T22:05:51;-1.50;99.90
50606;DHT22;36557;53.572;10.170;2023-02-26T22:08:17;-1.50;99.90
50606;DHT22;36557;53.572;10.170;2023-02-26T22:10:43;-1.60;99.90
50606;DHT22;36557;53.572;10.170;2023-02-26T22:13:10;-1.50;99.90
50606;DHT22;36557;53.572;10.170;2023-02-26T22:15:36;-1.50;99.90
50606;DHT22;36557;53.572;10.170;2023-02-26T22:18:02;-1.40;99.90
50606;DHT22;36557;53.572;10.170;2023-02-26T22:20:28;-1.40;99.90
50606;DHT22;36557;53.572;10.170;2023-02-26T22:22:55;-1.50;99.90
50606;DHT22;36557;53.572;10.170;2023-02-26T22:25:21;-1.60;99.90
50606;DHT22;36557;53.572;10.170;2023-02-26T22:27:47;-1.60;99.90
50606;DHT22;36557;53.572;10.170;2023-02-26T22:30:13;-1.80;99.90
50606;DHT22;36557;53.572;10.170;2023-02-26T22:32:39;-1.80;99.90
50606;DHT22;36557;53.572;10.170;2023-02-26T22:35:05;-1.90;99.90
50606;DHT22;36557;53.572;10.170;2023-02-26T22:37:31;-2.00;99.90
50606;DHT22;36557;53.572;10.170;2023-02-26T22:39:57;-2.00;99.90
50606;DHT22;36557;53.572;10.170;2023-02-26T22:42:23;-2.00;99.90
50606;DHT22;36557;53.572;10.170;2023-02-26T22:44:49;-2.00;99.90
50606;DHT22;36557;53.572;10.170;2023-02-26T22:47:14;-1.90;99.90
50606;DHT22;36557;53.572;10.170;2023-02-26T22:49:40;-2.00;99.90
50606;DHT22;36557;53.572;10.170;2023-02-26T22:52:06;-2.00;99.90
50606;DHT22;36557;53.572;10.170;2023-02-26T22:54:32;-2.00;99.90
50606;DHT22;36557;53.572;10.170;2023-02-26T22:56:59;-2.10;99.90
50606;DHT22;36557;53.572;10.170;2023-02-26T22:59:24;-2.10;99.90
50606;DHT22;36557;53.572;10.170;2023-02-26T23:01:51;-2.00;99.90
50606;DHT22;36557;53.572;10.170;2023-02-26T23:04:16;-2.00;99.90
50606;DHT22;36557;53.572;10.170;2023-02-26T23:06:42;-2.00;99.90
50606;DHT22;36557;53.572;10.170;2023-02-26T23:09:08;-2.10;99.90
50606;DHT22;36557;53.572;10.170;2023-02-26T23:11:33;-2.10;99.90
50606;DHT22;36557;53.572;10.170;2023-02-26T23:13:59;-2.20;99.90
50606;DHT22;36557;53.572;10.170;2023-02-26T23:16:25;-2.20;99.90
50606;DHT22;36557;53.572;10.170;2023-02-26T23:18:50;-2.20;99.90
50606;DHT22;36557;53.572;10.170;2023-02-26T23:21:16;-2.10;99.90
50606;DHT22;36557;53.572;10.170;2023-02-26T23:23:42;-2.00;99.90
50606;DHT22;36557;53.572;10.170;2023-02-26T23:26:08;-2.00;99.90
50606;DHT22;36557;53.572;10.170;2023-02-26T23:28:35;-2.10;99.90
50606;DHT22;36557;53.572;10.170;2023-02-26T23:31:01;-2.20;99.90
50606;DHT22;36557;53.572;10.170;2023-02-26T23:33:26;-2.30;99.90
50606;DHT22;36557;53.572;10.170;2023-02-26T23:35:52;-2.30;99.90
50606;DHT22;36557;53.572;10.170;2023-02-26T23:38:18;-2.20;99.90
50606;DHT22;36557;53.572;10.170;2023-02-26T23:40:43;-2.10;99.90
50606;DHT22;36557;53.572;10.170;2023-02-26T23:43:09;-2.10;99.90
50606;DHT22;36557;53.572;10.170;2023-02-26T23:45:35;-2.10;99.90
50606;DHT22;36557;53.572;10.170;2023-02-26T23:48:00;-2.10;99.90
50606;DHT22;36557;53.572;10.170;2023-02-26T23:50:26;-2.10;99.90
50606;DHT22;36557;53.572;10.170;2023-02-26T23:52:52;-2.20;99.90
50606;DHT22;36557;53.572;10.170;2023-02-26T23:55:18;-2.30;99.90
50606;DHT22;36557;53.572;10.170;2023-02-26T23:57:44;-2.20;99.90
